Yakumosan — V7QS7 — position and weather

sailwx.info

Track history (hours):
 
Tides and Currents Weather Stations Pressure Air Temp Water Temp Dewpoint Dewpoint Depression Visibility Wind Speed Wind Dir Waves Ship Positions

Yakumosan

Last reported at 2018-Jan-05 09:51 UTC. Time now 2018-Jan-18 17:27 UTC.
Position N 33°48' E 134°54'.
Warning: this ship's position is 13 days out of date.

Length 333 m; draft 10.9 m.

Type: Ship (hazmat cat A). MMSI: 538003428.

Date/timePositionNaut miles runAvg speedWind from/ knotsBaromVisibWave heightAir tempDewpointWater temp
2018-Jan-05 09:51N 33°48' E 134°54'514.6
2018-Jan-05 09:29N 33°54' E 134°54'613.1
2018-Jan-05 09:00N 33°60' E 134°55'714.4
2018-Jan-05 08:30N 34°07' E 134°57'613.1
2018-Jan-05 08:00N 34°13' E 134°58'713.3
2018-Jan-05 07:30N 34°20' E 134°59'815.1
2018-Jan-05 07:01N 34°27' E 135°03'713.5
2018-Jan-05 06:30N 34°33' E 135°06'4 7.6
2018-Jan-05 06:00N 34°36' E 135°03'612.4
2018-Jan-05 05:30N 34°36' E 134°56'714.4
2018-Jan-05 05:00N 34°33' E 134°48'714.4
2018-Jan-05 04:30N 34°30' E 134°40'714.7
2018-Jan-05 04:00N 34°27' E 134°32'  
2018-Jan-02 23:41N 34°25' E 134°22'212.1
2018-Jan-02 23:29N 34°26' E 134°25'611.7
2018-Jan-02 23:00N 34°28' E 134°31'612.0
2018-Jan-02 22:30N 34°31' E 134°38'612.4
2018-Jan-02 22:00N 34°33' E 134°45'713.2
2018-Jan-02 21:30N 34°35' E 134°53'612.2
2018-Jan-02 21:00N 34°38' E 134°59'510.3
2018-Jan-02 20:30N 34°36' E 135°05'3 6.4
2018-Jan-02 20:00N 34°34' E 135°09'510.4
2018-Jan-02 19:30N 34°29' E 135°06'612.4
2018-Jan-02 19:00N 34°24' E 135°03'612.2
2018-Jan-02 18:30N 34°18' E 134°59'510.3
2018-Jan-02 18:00N 34°13' E 134°60'5 9.1
2018-Jan-02 17:30N 34°09' E 134°60'4 7.1
2018-Jan-02 17:00N 34°05' E 134°59'4 7.4
2018-Jan-02 16:30N 34°02' E 134°59'4 7.4
2018-Jan-02 16:00N 33°58' E 134°59'4 8.2
2018-Jan-02 15:30N 33°54' E 134°58'610.6
2018-Jan-02 14:56N 33°48' E 134°58'  
2017-Dec-28 21:50N 24°39' E 123°34'514.8
2017-Dec-28 21:30N 24°36' E 123°30'715.0
2017-Dec-28 21:00N 24°31' E 123°23'815.4
2017-Dec-28 20:31N 24°27' E 123°16'714.5
2017-Dec-28 20:00N 24°20' E 123°12'815.2
2017-Dec-28 19:30N 24°13' E 123°10'815.4
2017-Dec-28 19:00N 24°06' E 123°08'815.2
2017-Dec-28 18:30N 23°58' E 123°06'714.9
2017-Dec-28 18:00N 23°51' E 123°04'814.9
2017-Dec-28 17:30N 23°44' E 123°02'  
Track history (hours):
 
Tides and Currents Weather Stations Pressure Air Temp Water Temp Dewpoint Dewpoint Depression Visibility Wind Speed Wind Dir Waves Ship Positions

Yakumosan

Last reported at 2018-Jan-05 09:51 UTC. Time now 2018-Jan-18 17:27 UTC.
Position N 33°48' E 134°54'.
Warning: this ship's position is 13 days out of date.

Length 333 m; draft 10.9 m.

Type: Ship (hazmat cat A). MMSI: 538003428.

Date/timePositionNaut miles runAvg speedWind from/ knotsBaromVisibWave heightAir tempDewpointWater temp
2018-Jan-05 09:51N 33°48' E 134°54'514.6
2018-Jan-05 09:29N 33°54' E 134°54'613.1
2018-Jan-05 09:00N 33°60' E 134°55'714.4
2018-Jan-05 08:30N 34°07' E 134°57'613.1
2018-Jan-05 08:00N 34°13' E 134°58'713.3
2018-Jan-05 07:30N 34°20' E 134°59'815.1
2018-Jan-05 07:01N 34°27' E 135°03'713.5
2018-Jan-05 06:30N 34°33' E 135°06'4 7.6
2018-Jan-05 06:00N 34°36' E 135°03'612.4
2018-Jan-05 05:30N 34°36' E 134°56'714.4
2018-Jan-05 05:00N 34°33' E 134°48'714.4
2018-Jan-05 04:30N 34°30' E 134°40'714.7
2018-Jan-05 04:00N 34°27' E 134°32'  
2018-Jan-02 23:41N 34°25' E 134°22'212.1
2018-Jan-02 23:29N 34°26' E 134°25'611.7
2018-Jan-02 23:00N 34°28' E 134°31'612.0
2018-Jan-02 22:30N 34°31' E 134°38'612.4
2018-Jan-02 22:00N 34°33' E 134°45'713.2
2018-Jan-02 21:30N 34°35' E 134°53'612.2
2018-Jan-02 21:00N 34°38' E 134°59'510.3
2018-Jan-02 20:30N 34°36' E 135°05'3 6.4
2018-Jan-02 20:00N 34°34' E 135°09'510.4
2018-Jan-02 19:30N 34°29' E 135°06'612.4
2018-Jan-02 19:00N 34°24' E 135°03'612.2
2018-Jan-02 18:30N 34°18' E 134°59'510.3
2018-Jan-02 18:00N 34°13' E 134°60'5 9.1
2018-Jan-02 17:30N 34°09' E 134°60'4 7.1
2018-Jan-02 17:00N 34°05' E 134°59'4 7.4
2018-Jan-02 16:30N 34°02' E 134°59'4 7.4
2018-Jan-02 16:00N 33°58' E 134°59'4 8.2
2018-Jan-02 15:30N 33°54' E 134°58'610.6
2018-Jan-02 14:56N 33°48' E 134°58'  
2017-Dec-28 21:50N 24°39' E 123°34'514.8
2017-Dec-28 21:30N 24°36' E 123°30'715.0
2017-Dec-28 21:00N 24°31' E 123°23'815.4
2017-Dec-28 20:31N 24°27' E 123°16'714.5
2017-Dec-28 20:00N 24°20' E 123°12'815.2
2017-Dec-28 19:30N 24°13' E 123°10'815.4
2017-Dec-28 19:00N 24°06' E 123°08'815.2
2017-Dec-28 18:30N 23°58' E 123°06'714.9
2017-Dec-28 18:00N 23°51' E 123°04'814.9
2017-Dec-28 17:30N 23°44' E 123°02'  

Dump ship's entire track history